sensor_id;sensor_type;location;lat;lon;timestamp;pressure;altitude;pressure_sealevel;temperature;humidity
4972;BME280;2501;51.214;6.768;2022-08-26T00:00:16;100773.03;;;23.78;100.00
4972;BME280;2501;51.214;6.768;2022-08-26T00:02:44;100775.06;;;23.68;100.00
4972;BME280;2501;51.214;6.768;2022-08-26T00:05:13;100767.09;;;23.58;100.00
4972;BME280;2501;51.214;6.768;2022-08-26T00:07:44;100762.84;;;23.62;100.00
4972;BME280;2501;51.214;6.768;2022-08-26T00:10:13;100762.88;;;23.53;100.00
4972;BME280;2501;51.214;6.768;2022-08-26T00:12:41;100765.41;;;23.51;100.00
4972;BME280;2501;51.214;6.768;2022-08-26T00:15:12;100776.38;;;23.49;100.00
4972;BME280;2501;51.214;6.768;2022-08-26T00:17:42;100769.94;;;23.39;100.00
4972;BME280;2501;51.214;6.768;2022-08-26T00:20:12;100766.94;;;23.34;100.00
4972;BME280;2501;51.214;6.768;2022-08-26T00:22:44;100772.59;;;23.34;100.00
4972;BME280;2501;51.214;6.768;2022-08-26T00:25:13;100775.91;;;23.32;100.00
4972;BME280;2501;51.214;6.768;2022-08-26T00:27:42;100789.56;;;23.34;100.00
4972;BME280;2501;51.214;6.768;2022-08-26T00:30:16;100793.16;;;23.34;100.00
4972;BME280;2501;51.214;6.768;2022-08-26T00:32:45;100791.13;;;23.35;100.00
4972;BME280;2501;51.214;6.768;2022-08-26T00:35:14;100794.91;;;23.32;100.00
4972;BME280;2501;51.214;6.768;2022-08-26T00:37:45;100791.28;;;23.31;100.00
4972;BME280;2501;51.214;6.768;2022-08-26T00:40:16;100800.56;;;23.32;100.00
4972;BME280;2501;51.214;6.768;2022-08-26T00:42:45;100798.19;;;23.30;100.00
4972;BME280;2501;51.214;6.768;2022-08-26T00:45:15;100802.75;;;23.28;100.00
4972;BME280;2501;51.214;6.768;2022-08-26T00:47:46;100793.94;;;23.26;100.00
4972;BME280;2501;51.214;6.768;2022-08-26T00:50:18;100792.69;;;23.18;100.00
4972;BME280;2501;51.214;6.768;2022-08-26T00:52:51;100792.38;;;23.06;100.00
4972;BME280;2501;51.214;6.768;2022-08-26T00:55:23;100798.19;;;23.03;100.00
4972;BME280;2501;51.214;6.768;2022-08-26T00:57:54;100795.97;;;22.98;100.00
4972;BME280;2501;51.214;6.768;2022-08-26T01:00:26;100798.97;;;23.03;100.00
4972;BME280;2501;51.214;6.768;2022-08-26T01:02:56;100793.16;;;22.98;100.00
4972;BME280;2501;51.214;6.768;2022-08-26T01:05:26;100790.97;;;22.93;100.00
4972;BME280;2501;51.214;6.768;2022-08-26T01:07:57;100789.56;;;22.88;100.00
4972;BME280;2501;51.214;6.768;2022-08-26T01:10:28;100784.69;;;22.89;100.00
4972;BME280;2501;51.214;6.768;2022-08-26T01:12:59;100786.25;;;22.90;100.00
4972;BME280;2501;51.214;6.768;2022-08-26T01:15:31;100790.00;;;22.87;100.00
4972;BME280;2501;51.214;6.768;2022-08-26T01:18:04;100788.28;;;22.80;100.00
4972;BME280;2501;51.214;6.768;2022-08-26T01:20:38;100788.44;;;22.77;100.00
4972;BME280;2501;51.214;6.768;2022-08-26T01:23:11;100781.66;;;22.65;100.00
4972;BME280;2501;51.214;6.768;2022-08-26T01:25:43;100786.16;;;22.53;100.00
4972;BME280;2501;51.214;6.768;2022-08-26T01:28:15;100786.03;;;22.57;100.00
4972;BME280;2501;51.214;6.768;2022-08-26T01:30:47;100785.84;;;22.51;100.00
4972;BME280;2501;51.214;6.768;2022-08-26T01:33:27;100787.41;;;22.52;100.00
4972;BME280;2501;51.214;6.768;2022-08-26T01:35:58;100794.78;;;22.50;100.00
4972;BME280;2501;51.214;6.768;2022-08-26T01:38:29;100784.25;;;22.50;100.00
4972;BME280;2501;51.214;6.768;2022-08-26T01:40:58;100791.63;;;22.48;100.00
4972;BME280;2501;51.214;6.768;2022-08-26T01:43:28;100792.41;;;22.48;100.00
4972;BME280;2501;51.214;6.768;2022-08-26T01:45:59;100796.78;;;22.40;100.00
4972;BME280;2501;51.214;6.768;2022-08-26T01:48:30;100794.75;;;22.41;100.00
4972;BME280;2501;51.214;6.768;2022-08-26T01:51:02;100792.38;;;22.39;100.00
4972;BME280;2501;51.214;6.768;2022-08-26T01:53:35;100804.59;;;22.36;100.00
4972;BME280;2501;51.214;6.768;2022-08-26T01:56:05;100811.81;;;22.37;100.00
4972;BME280;2501;51.214;6.768;2022-08-26T01:58:39;100801.94;;;22.33;100.00
4972;BME280;2501;51.214;6.768;2022-08-26T02:01:09;100805.97;;;22.23;100.00
4972;BME280;2501;51.214;6.768;2022-08-26T02:03:44;100813.66;;;22.22;100.00
4972;BME280;2501;51.214;6.768;2022-08-26T02:06:16;100814.09;;;22.21;100.00
4972;BME280;2501;51.214;6.768;2022-08-26T02:08:51;100809.41;;;22.17;100.00
4972;BME280;2501;51.214;6.768;2022-08-26T02:11:21;100818.00;;;22.14;100.00
4972;BME280;2501;51.214;6.768;2022-08-26T02:13:52;100813.28;;;22.11;100.00
4972;BME280;2501;51.214;6.768;2022-08-26T02:16:25;100818.59;;;22.09;100.00
4972;BME280;2501;51.214;6.768;2022-08-26T02:18:56;100823.28;;;22.03;100.00
4972;BME280;2501;51.214;6.768;2022-08-26T02:21:25;100835.72;;;21.93;100.00
4972;BME280;2501;51.214;6.768;2022-08-26T02:24:07;100833.75;;;21.81;100.00
4972;BME280;2501;51.214;6.768;2022-08-26T02:26:35;100832.31;;;21.76;100.00
4972;BME280;2501;51.214;6.768;2022-08-26T02:29:06;100837.28;;;21.72;100.00
4972;BME280;2501;51.214;6.768;2022-08-26T02:31:37;100839.66;;;21.74;100.00
4972;BME280;2501;51.214;6.768;2022-08-26T02:34:07;100839.94;;;21.66;100.00
4972;BME280;2501;51.214;6.768;2022-08-26T02:36:36;100838.81;;;21.64;100.00
4972;BME280;2501;51.214;6.768;2022-08-26T02:39:08;100836.00;;;21.64;100.00
4972;BME280;2501;51.214;6.768;2022-08-26T02:41:37;100840.19;;;21.59;100.00
4972;BME280;2501;51.214;6.768;2022-08-26T02:44:06;100837.69;;;21.61;100.00
4972;BME280;2501;51.214;6.768;2022-08-26T02:46:35;100831.41;;;21.57;100.00
4972;BME280;2501;51.214;6.768;2022-08-26T02:49:03;100837.03;;;21.57;100.00
4972;BME280;2501;51.214;6.768;2022-08-26T02:51:32;100837.81;;;21.58;100.00
4972;BME280;2501;51.214;6.768;2022-08-26T02:54:01;100840.31;;;21.56;100.00
4972;BME280;2501;51.214;6.768;2022-08-26T02:56:34;100836.50;;;21.50;100.00
4972;BME280;2501;51.214;6.768;2022-08-26T02:59:02;100829.50;;;21.54;100.00
4972;BME280;2501;51.214;6.768;2022-08-26T03:01:32;100830.94;;;21.59;100.00
4972;BME280;2501;51.214;6.768;2022-08-26T03:04:02;100835.78;;;21.58;100.00
4972;BME280;2501;51.214;6.768;2022-08-26T03:06:31;100840.31;;;21.56;100.00
4972;BME280;2501;51.214;6.768;2022-08-26T03:09:00;100832.19;;;21.58;100.00
4972;BME280;2501;51.214;6.768;2022-08-26T03:11:28;100838.75;;;21.55;100.00
4972;BME280;2501;51.214;6.768;2022-08-26T03:14:00;100833.44;;;21.57;100.00
4972;BME280;2501;51.214;6.768;2022-08-26T03:16:31;100828.13;;;21.59;100.00
4972;BME280;2501;51.214;6.768;2022-08-26T03:19:00;100838.81;;;21.64;100.00
4972;BME280;2501;51.214;6.768;2022-08-26T03:21:29;100836.19;;;21.69;100.00
4972;BME280;2501;51.214;6.768;2022-08-26T03:23:58;100833.94;;;21.64;100.00
4972;BME280;2501;51.214;6.768;2022-08-26T03:26:27;100834.16;;;21.70;100.00
4972;BME280;2501;51.214;6.768;2022-08-26T03:28:56;100832.00;;;21.74;100.00
4972;BME280;2501;51.214;6.768;2022-08-26T03:31:39;100834.38;;;21.76;100.00
4972;BME280;2501;51.214;6.768;2022-08-26T03:34:08;100827.00;;;21.78;100.00
4972;BME280;2501;51.214;6.768;2022-08-26T03:36:37;100830.88;;;21.72;100.00
4972;BME280;2501;51.214;6.768;2022-08-26T03:39:06;100828.00;;;21.62;100.00
4972;BME280;2501;51.214;6.768;2022-08-26T03:41:35;100830.22;;;21.67;100.00
4972;BME280;2501;51.214;6.768;2022-08-26T03:44:05;100836.13;;;21.60;100.00
4972;BME280;2501;51.214;6.768;2022-08-26T03:46:34;100838.47;;;21.62;100.00
4972;BME280;2501;51.214;6.768;2022-08-26T03:49:06;100835.22;;;21.63;100.00
4972;BME280;2501;51.214;6.768;2022-08-26T03:51:36;100825.84;;;21.66;100.00
4972;BME280;2501;51.214;6.768;2022-08-26T03:54:05;100833.81;;;21.68;100.00
4972;BME280;2501;51.214;6.768;2022-08-26T03:56:34;100840.59;;;21.70;100.00
4972;BME280;2501;51.214;6.768;2022-08-26T03:59:04;100840.72;;;21.67;100.00
4972;BME280;2501;51.214;6.768;2022-08-26T04:01:32;100837.28;;;21.72;100.00
4972;BME280;2501;51.214;6.768;2022-08-26T04:04:01;100844.50;;;21.73;100.00
4972;BME280;2501;51.214;6.768;2022-08-26T04:06:34;100841.25;;;21.75;100.00
4972;BME280;2501;51.214;6.768;2022-08-26T04:09:06;100840.91;;;21.73;100.00
4972;BME280;2501;51.214;6.768;2022-08-26T04:11:35;100830.75;;;21.75;100.00
4972;BME280;2501;51.214;6.768;2022-08-26T04:14:06;100836.03;;;21.73;100.00
4972;BME280;2501;51.214;6.768;2022-08-26T04:16:35;100837.94;;;21.76;100.00
4972;BME280;2501;51.214;6.768;2022-08-26T04:19:04;100833.88;;;21.77;100.00
4972;BME280;2501;51.214;6.768;2022-08-26T04:21:35;100846.28;;;21.80;100.00
4972;BME280;2501;51.214;6.768;2022-08-26T04:24:07;100846.91;;;21.84;100.00
4972;BME280;2501;51.214;6.768;2022-08-26T04:26:36;100838.59;;;21.80;100.00
4972;BME280;2501;51.214;6.768;2022-08-26T04:29:06;100845.28;;;21.74;100.00
4972;BME280;2501;51.214;6.768;2022-08-26T04:32:19;100841.09;;;21.78;100.00
4972;BME280;2501;51.214;6.768;2022-08-26T04:34:47;100846.75;;;21.78;100.00
4972;BME280;2501;51.214;6.768;2022-08-26T04:37:16;100847.97;;;21.77;100.00
4972;BME280;2501;51.214;6.768;2022-08-26T04:39:44;100850.00;;;21.77;100.00
4972;BME280;2501;51.214;6.768;2022-08-26T04:42:13;100844.72;;;21.79;100.00
4972;BME280;2501;51.214;6.768;2022-08-26T04:44:41;100853.03;;;21.82;100.00
4972;BME280;2501;51.214;6.768;2022-08-26T04:47:10;100848.63;;;21.81;100.00
4972;BME280;2501;51.214;6.768;2022-08-26T04:49:41;100852.69;;;21.80;100.00
4972;BME280;2501;51.214;6.768;2022-08-26T04:52:10;100848.19;;;21.83;100.00
4972;BME280;2501;51.214;6.768;2022-08-26T04:54:39;100852.25;;;21.82;100.00
4972;BME280;2501;51.214;6.768;2022-08-26T04:57:08;100858.00;;;21.78;100.00
4972;BME280;2501;51.214;6.768;2022-08-26T04:59:36;100851.78;;;21.83;100.00
4972;BME280;2501;51.214;6.768;2022-08-26T05:02:05;100860.13;;;21.87;100.00
4972;BME280;2501;51.214;6.768;2022-08-26T05:04:34;100860.91;;;21.87;100.00
4972;BME280;2501;51.214;6.768;2022-08-26T05:07:06;100856.94;;;21.85;100.00
4972;BME280;2501;51.214;6.768;2022-08-26T05:09:35;100864.31;;;21.82;100.00
4972;BME280;2501;51.214;6.768;2022-08-26T05:12:04;100858.78;;;21.91;100.00
4972;BME280;2501;51.214;6.768;2022-08-26T05:14:32;100858.00;;;22.00;100.00
4972;BME280;2501;51.214;6.768;2022-08-26T05:17:01;100854.59;;;22.05;100.00
4972;BME280;2501;51.214;6.768;2022-08-26T05:19:29;100854.81;;;22.10;100.00
4972;BME280;2501;51.214;6.768;2022-08-26T05:21:59;100851.19;;;22.10;100.00
4972;BME280;2501;51.214;6.768;2022-08-26T05:24:30;100851.84;;;22.14;100.00
4972;BME280;2501;51.214;6.768;2022-08-26T05:26:58;100857.94;;;22.12;100.00
4972;BME280;2501;51.214;6.768;2022-08-26T05:29:27;100851.19;;;22.10;100.00
4972;BME280;2501;51.214;6.768;2022-08-26T05:31:55;100856.56;;;22.17;100.00
4972;BME280;2501;51.214;6.768;2022-08-26T05:34:25;100858.44;;;22.20;100.00
4972;BME280;2501;51.214;6.768;2022-08-26T05:36:53;100852.94;;;22.16;100.00
4972;BME280;2501;51.214;6.768;2022-08-26T05:39:22;100865.31;;;22.19;100.00
4972;BME280;2501;51.214;6.768;2022-08-26T05:41:53;100857.63;;;22.10;100.00
4972;BME280;2501;51.214;6.768;2022-08-26T05:44:21;100862.13;;;22.08;100.00
4972;BME280;2501;51.214;6.768;2022-08-26T05:46:50;100855.63;;;22.20;100.00
4972;BME280;2501;51.214;6.768;2022-08-26T05:49:18;100861.63;;;22.00;100.00
4972;BME280;2501;51.214;6.768;2022-08-26T05:51:47;100865.88;;;22.05;100.00
4972;BME280;2501;51.214;6.768;2022-08-26T05:54:15;100868.19;;;21.97;100.00
4972;BME280;2501;51.214;6.768;2022-08-26T05:56:44;100867.91;;;22.04;100.00
4972;BME280;2501;51.214;6.768;2022-08-26T05:59:15;100865.09;;;22.04;100.00
4972;BME280;2501;51.214;6.768;2022-08-26T06:01:43;100868.84;;;22.01;100.00
4972;BME280;2501;51.214;6.768;2022-08-26T06:04:12;100876.84;;;22.03;100.00
4972;BME280;2501;51.214;6.768;2022-08-26T06:06:41;100877.63;;;22.03;100.00
4972;BME280;2501;51.214;6.768;2022-08-26T06:09:09;100881.06;;;21.98;100.00
4972;BME280;2501;51.214;6.768;2022-08-26T06:11:38;100881.38;;;22.00;100.00
4972;BME280;2501;51.214;6.768;2022-08-26T06:14:07;100878.53;;;22.00;100.00
4972;BME280;2501;51.214;6.768;2022-08-26T06:16:40;100880.78;;;22.05;100.00
4972;BME280;2501;51.214;6.768;2022-08-26T06:19:12;100880.13;;;22.01;100.00
4972;BME280;2501;51.214;6.768;2022-08-26T06:21:45;100881.22;;;22.04;100.00
4972;BME280;2501;51.214;6.768;2022-08-26T06:24:13;100885.19;;;22.06;100.00
4972;BME280;2501;51.214;6.768;2022-08-26T06:26:56;100879.84;;;22.08;100.00
4972;BME280;2501;51.214;6.768;2022-08-26T06:29:26;100879.91;;;22.17;100.00
4972;BME280;2501;51.214;6.768;2022-08-26T06:31:59;100889.59;;;22.16;100.00
4972;BME280;2501;51.214;6.768;2022-08-26T06:34:28;100884.69;;;22.30;100.00
4972;BME280;2501;51.214;6.768;2022-08-26T06:36:59;100892.72;;;22.40;100.00
4972;BME280;2501;51.214;6.768;2022-08-26T06:39:30;100893.69;;;22.46;100.00
4972;BME280;2501;51.214;6.768;2022-08-26T06:41:59;100892.56;;;22.44;100.00
4972;BME280;2501;51.214;6.768;2022-08-26T06:44:28;100893.22;;;22.48;100.00
4972;BME280;2501;51.214;6.768;2022-08-26T06:46:59;100888.47;;;22.36;100.00
4972;BME280;2501;51.214;6.768;2022-08-26T06:49:28;100899.50;;;22.21;100.00
4972;BME280;2501;51.214;6.768;2022-08-26T06:51:56;100890.81;;;22.06;100.00
4972;BME280;2501;51.214;6.768;2022-08-26T06:54:25;100892.31;;;21.98;100.00
4972;BME280;2501;51.214;6.768;2022-08-26T06:56:56;100898.28;;;22.00;100.00
4972;BME280;2501;51.214;6.768;2022-08-26T06:59:25;100894.59;;;22.12;100.00
4972;BME280;2501;51.214;6.768;2022-08-26T07:01:55;100904.81;;;22.19;100.00
4972;BME280;2501;51.214;6.768;2022-08-26T07:04:27;100901.88;;;22.23;100.00
4972;BME280;2501;51.214;6.768;2022-08-26T07:06:56;100902.34;;;22.21;100.00
4972;BME280;2501;51.214;6.768;2022-08-26T07:09:28;100903.94;;;22.31;100.00
4972;BME280;2501;51.214;6.768;2022-08-26T07:11:57;100902.47;;;22.17;100.00
4972;BME280;2501;51.214;6.768;2022-08-26T07:14:26;100900.59;;;22.14;100.00
4972;BME280;2501;51.214;6.768;2022-08-26T07:16:56;100906.81;;;22.09;100.00
4972;BME280;2501;51.214;6.768;2022-08-26T07:19:29;100914.00;;;21.89;100.00
4972;BME280;2501;51.214;6.768;2022-08-26T07:21:58;100908.78;;;22.00;100.00
4972;BME280;2501;51.214;6.768;2022-08-26T07:24:27;100909.25;;;21.98;100.00
4972;BME280;2501;51.214;6.768;2022-08-26T07:26:58;100919.66;;;22.10;100.00
4972;BME280;2501;51.214;6.768;2022-08-26T07:29:26;100919.53;;;22.14;100.00
4972;BME280;2501;51.214;6.768;2022-08-26T07:31:56;100918.91;;;22.19;100.00
4972;BME280;2501;51.214;6.768;2022-08-26T07:34:24;100926.41;;;22.13;100.00
4972;BME280;2501;51.214;6.768;2022-08-26T07:36:55;100921.56;;;22.13;100.00
4972;BME280;2501;51.214;6.768;2022-08-26T07:39:25;100929.50;;;22.06;100.00
4972;BME280;2501;51.214;6.768;2022-08-26T07:41:54;100934.81;;;22.04;100.00
4972;BME280;2501;51.214;6.768;2022-08-26T07:44:22;100936.25;;;22.08;100.00
4972;BME280;2501;51.214;6.768;2022-08-26T07:46:51;100939.94;;;22.18;100.00
4972;BME280;2501;51.214;6.768;2022-08-26T07:49:20;100939.44;;;22.20;100.00
4972;BME280;2501;51.214;6.768;2022-08-26T07:51:49;100933.50;;;22.17;100.00
4972;BME280;2501;51.214;6.768;2022-08-26T07:54:21;100937.38;;;22.11;100.00
4972;BME280;2501;51.214;6.768;2022-08-26T07:56:50;100946.88;;;22.04;100.00
4972;BME280;2501;51.214;6.768;2022-08-26T07:59:18;100943.28;;;22.26;100.00
4972;BME280;2501;51.214;6.768;2022-08-26T08:01:48;100943.44;;;22.31;100.00
4972;BME280;2501;51.214;6.768;2022-08-26T08:04:17;100950.34;;;22.30;100.00
4972;BME280;2501;51.214;6.768;2022-08-26T08:06:46;100944.84;;;22.27;100.00
4972;BME280;2501;51.214;6.768;2022-08-26T08:09:15;100945.28;;;22.25;100.00
4972;BME280;2501;51.214;6.768;2022-08-26T08:11:46;100946.09;;;22.26;100.00
4972;BME280;2501;51.214;6.768;2022-08-26T08:14:14;100940.09;;;22.24;100.00
4972;BME280;2501;51.214;6.768;2022-08-26T08:16:43;100953.56;;;22.20;100.00
4972;BME280;2501;51.214;6.768;2022-08-26T08:19:11;100942.94;;;22.24;100.00
4972;BME280;2501;51.214;6.768;2022-08-26T08:21:40;100943.66;;;22.37;100.00
4972;BME280;2501;51.214;6.768;2022-08-26T08:24:09;100952.75;;;22.41;100.00
4972;BME280;2501;51.214;6.768;2022-08-26T08:26:38;100954.81;;;22.19;100.00
4972;BME280;2501;51.214;6.768;2022-08-26T08:29:10;100952.97;;;22.25;100.00
4972;BME280;2501;51.214;6.768;2022-08-26T08:31:38;100958.03;;;22.30;100.00
4972;BME280;2501;51.214;6.768;2022-08-26T08:34:07;100963.31;;;22.28;100.00
4972;BME280;2501;51.214;6.768;2022-08-26T08:36:35;100962.81;;;22.20;100.00
4972;BME280;2501;51.214;6.768;2022-08-26T08:39:04;100964.44;;;22.08;100.00
4972;BME280;2501;51.214;6.768;2022-08-26T08:41:54;100964.69;;;22.23;100.00
4972;BME280;2501;51.214;6.768;2022-08-26T08:44:31;100960.19;;;22.26;100.00
4972;BME280;2501;51.214;6.768;2022-08-26T08:47:03;100961.63;;;22.30;100.00
4972;BME280;2501;51.214;6.768;2022-08-26T08:49:33;100963.84;;;22.35;100.00
4972;BME280;2501;51.214;6.768;2022-08-26T08:52:05;100964.88;;;22.50;100.00
4972;BME280;2501;51.214;6.768;2022-08-26T08:54:35;100967.84;;;22.47;100.00
4972;BME280;2501;51.214;6.768;2022-08-26T08:57:10;100962.19;;;22.47;100.00
4972;BME280;2501;51.214;6.768;2022-08-26T08:59:47;100957.16;;;22.20;100.00
4972;BME280;2501;51.214;6.768;2022-08-26T09:02:23;100961.16;;;22.32;100.00
4972;BME280;2501;51.214;6.768;2022-08-26T09:05:04;100968.59;;;22.38;100.00
4972;BME280;2501;51.214;6.768;2022-08-26T09:07:36;100970.25;;;22.27;100.00
4972;BME280;2501;51.214;6.768;2022-08-26T09:10:22;100959.19;;;22.41;100.00
4972;BME280;2501;51.214;6.768;2022-08-26T09:12:54;100962.91;;;22.60;100.00
4972;BME280;2501;51.214;6.768;2022-08-26T09:15:28;100973.53;;;22.78;100.00
4972;BME280;2501;51.214;6.768;2022-08-26T09:18:08;100977.97;;;22.88;100.00
4972;BME280;2501;51.214;6.768;2022-08-26T09:20:45;100981.53;;;22.79;100.00
4972;BME280;2501;51.214;6.768;2022-08-26T09:23:17;100977.34;;;22.93;100.00
4972;BME280;2501;51.214;6.768;2022-08-26T09:25:48;100982.25;;;22.71;100.00
4972;BME280;2501;51.214;6.768;2022-08-26T09:28:20;100969.91;;;22.77;100.00
4972;BME280;2501;51.214;6.768;2022-08-26T09:31:02;100986.22;;;22.82;100.00
4972;BME280;2501;51.214;6.768;2022-08-26T09:33:32;100985.78;;;22.84;100.00
4972;BME280;2501;51.214;6.768;2022-08-26T09:36:20;100978.75;;;22.88;100.00
4972;BME280;2501;51.214;6.768;2022-08-26T09:38:51;100975.50;;;22.68;100.00
4972;BME280;2501;51.214;6.768;2022-08-26T09:41:26;100975.88;;;22.79;100.00
4972;BME280;2501;51.214;6.768;2022-08-26T09:44:12;100989.56;;;22.90;100.00
4972;BME280;2501;51.214;6.768;2022-08-26T09:46:51;100976.91;;;23.03;100.00
4972;BME280;2501;51.214;6.768;2022-08-26T09:49:28;100978.88;;;23.34;100.00
4972;BME280;2501;51.214;6.768;2022-08-26T09:52:07;100981.56;;;23.28;100.00
4972;BME280;2501;51.214;6.768;2022-08-26T09:54:37;100982.59;;;23.13;100.00
4972;BME280;2501;51.214;6.768;2022-08-26T09:57:12;100980.00;;;23.36;100.00
4972;BME280;2501;51.214;6.768;2022-08-26T09:59:42;100982.16;;;23.23;100.00
4972;BME280;2501;51.214;6.768;2022-08-26T10:02:37;100982.94;;;23.24;100.00
4972;BME280;2501;51.214;6.768;2022-08-26T10:05:09;100979.78;;;23.13;100.00
4972;BME280;2501;51.214;6.768;2022-08-26T10:07:46;100977.56;;;23.07;100.00
4972;BME280;2501;51.214;6.768;2022-08-26T10:10:20;100980.78;;;23.28;100.00
4972;BME280;2501;51.214;6.768;2022-08-26T10:12:56;100971.25;;;23.43;100.00
4972;BME280;2501;51.214;6.768;2022-08-26T10:15:27;100980.03;;;23.45;100.00
4972;BME280;2501;51.214;6.768;2022-08-26T10:18:08;100976.69;;;23.38;100.00
4972;BME280;2501;51.214;6.768;2022-08-26T10:20:47;100979.38;;;23.41;100.00
4972;BME280;2501;51.214;6.768;2022-08-26T10:23:20;100977.03;;;23.40;100.00
4972;BME280;2501;51.214;6.768;2022-08-26T10:25:53;100975.06;;;23.68;100.00
4972;BME280;2501;51.214;6.768;2022-08-26T10:28:30;100974.59;;;24.06;100.00
4972;BME280;2501;51.214;6.768;2022-08-26T10:31:03;100983.69;;;24.00;100.00
4972;BME280;2501;51.214;6.768;2022-08-26T10:33:37;100974.06;;;23.52;100.00
4972;BME280;2501;51.214;6.768;2022-08-26T10:36:10;100969.53;;;23.55;100.00
4972;BME280;2501;51.214;6.768;2022-08-26T10:39:05;100973.72;;;23.41;100.00
4972;BME280;2501;51.214;6.768;2022-08-26T10:41:38;100969.38;;;23.49;100.00
4972;BME280;2501;51.214;6.768;2022-08-26T10:44:10;100970.00;;;23.53;100.00
4972;BME280;2501;51.214;6.768;2022-08-26T10:46:46;100970.81;;;23.63;100.00
4972;BME280;2501;51.214;6.768;2022-08-26T10:49:18;100972.22;;;23.77;100.00
4972;BME280;2501;51.214;6.768;2022-08-26T10:51:53;100973.63;;;23.99;100.00
4972;BME280;2501;51.214;6.768;2022-08-26T10:54:30;100976.16;;;24.16;100.00
4972;BME280;2501;51.214;6.768;2022-08-26T10:57:12;100987.66;;;24.21;100.00
4972;BME280;2501;51.214;6.768;2022-08-26T10:59:52;100979.78;;;24.25;100.00
4972;BME280;2501;51.214;6.768;2022-08-26T11:02:29;100980.50;;;24.53;100.00
4972;BME280;2501;51.214;6.768;2022-08-26T11:05:02;100980.53;;;24.35;100.00
4972;BME280;2501;51.214;6.768;2022-08-26T11:07:37;100973.34;;;24.25;100.00
4972;BME280;2501;51.214;6.768;2022-08-26T11:13:01;100969.94;;;24.63;100.00
4972;BME280;2501;51.214;6.768;2022-08-26T11:15:56;100973.59;;;24.54;100.00
4972;BME280;2501;51.214;6.768;2022-08-26T11:18:42;100986.19;;;24.53;100.00
4972;BME280;2501;51.214;6.768;2022-08-26T11:24:57;100976.59;;;24.41;100.00
4972;BME280;2501;51.214;6.768;2022-08-26T11:30:41;100972.19;;;24.49;100.00
4972;BME280;2501;51.214;6.768;2022-08-26T11:36:54;100962.59;;;24.47;100.00
4972;BME280;2501;51.214;6.768;2022-08-26T11:39:29;100961.84;;;24.28;100.00
4972;BME280;2501;51.214;6.768;2022-08-26T11:42:15;100970.16;;;24.32;100.00
4972;BME280;2501;51.214;6.768;2022-08-26T11:44:45;100958.56;;;24.02;100.00
4972;BME280;2501;51.214;6.768;2022-08-26T11:47:15;100967.03;;;24.12;100.00
4972;BME280;2501;51.214;6.768;2022-08-26T11:49:44;100966.72;;;24.10;100.00
4972;BME280;2501;51.214;6.768;2022-08-26T11:52:16;100964.84;;;24.16;100.00
4972;BME280;2501;51.214;6.768;2022-08-26T11:54:59;100969.72;;;24.15;100.00
4972;BME280;2501;51.214;6.768;2022-08-26T11:57:33;100964.84;;;24.25;100.00
4972;BME280;2501;51.214;6.768;2022-08-26T12:00:03;100963.44;;;24.20;100.00
4972;BME280;2501;51.214;6.768;2022-08-26T12:02:33;100961.69;;;24.04;100.00
4972;BME280;2501;51.214;6.768;2022-08-26T12:05:02;100968.97;;;24.15;100.00
4972;BME280;2501;51.214;6.768;2022-08-26T12:07:31;100970.03;;;24.26;100.00
4972;BME280;2501;51.214;6.768;2022-08-26T12:10:03;100970.00;;;24.08;100.00
4972;BME280;2501;51.214;6.768;2022-08-26T12:12:36;100969.41;;;24.22;100.00
4972;BME280;2501;51.214;6.768;2022-08-26T12:15:13;100975.22;;;24.28;100.00
4972;BME280;2501;51.214;6.768;2022-08-26T12:17:42;100985.75;;;24.27;100.00
4972;BME280;2501;51.214;6.768;2022-08-26T12:20:30;100977.69;;;24.35;100.00
4972;BME280;2501;51.214;6.768;2022-08-26T12:23:19;100980.72;;;24.22;100.00
4972;BME280;2501;51.214;6.768;2022-08-26T12:25:49;100972.41;;;24.19;100.00
4972;BME280;2501;51.214;6.768;2022-08-26T12:28:28;100974.13;;;24.07;100.00
4972;BME280;2501;51.214;6.768;2022-08-26T12:30:59;100971.13;;;24.29;100.00
4972;BME280;2501;51.214;6.768;2022-08-26T12:33:27;100975.81;;;24.32;100.00
4972;BME280;2501;51.214;6.768;2022-08-26T12:35:57;100972.53;;;24.33;100.00
4972;BME280;2501;51.214;6.768;2022-08-26T12:38:27;100984.75;;;24.48;100.00
4972;BME280;2501;51.214;6.768;2022-08-26T12:40:56;100983.81;;;24.52;100.00
4972;BME280;2501;51.214;6.768;2022-08-26T12:43:41;100978.75;;;24.56;100.00
4972;BME280;2501;51.214;6.768;2022-08-26T12:46:12;100991.22;;;24.58;100.00
4972;BME280;2501;51.214;6.768;2022-08-26T12:48:47;100983.31;;;24.62;100.00
4972;BME280;2501;51.214;6.768;2022-08-26T12:51:22;100982.41;;;24.47;100.00
4972;BME280;2501;51.214;6.768;2022-08-26T12:53:51;100982.88;;;24.45;100.00
4972;BME280;2501;51.214;6.768;2022-08-26T12:56:26;100983.34;;;24.53;100.00
4972;BME280;2501;51.214;6.768;2022-08-26T12:59:06;100974.06;;;24.43;100.00
4972;BME280;2501;51.214;6.768;2022-08-26T13:01:38;100975.69;;;24.26;100.00
4972;BME280;2501;51.214;6.768;2022-08-26T13:04:31;100958.72;;;24.26;100.00
4972;BME280;2501;51.214;6.768;2022-08-26T13:07:20;100962.94;;;24.03;100.00
4972;BME280;2501;51.214;6.768;2022-08-26T13:09:50;100955.41;;;24.00;100.00
4972;BME280;2501;51.214;6.768;2022-08-26T13:12:30;100950.84;;;23.85;100.00
4972;BME280;2501;51.214;6.768;2022-08-26T13:15:05;100957.47;;;23.91;100.00
4972;BME280;2501;51.214;6.768;2022-08-26T13:17:34;100954.00;;;23.78;100.00
4972;BME280;2501;51.214;6.768;2022-08-26T13:20:04;100943.63;;;23.93;100.00
4972;BME280;2501;51.214;6.768;2022-08-26T13:22:33;100950.88;;;23.94;100.00
4972;BME280;2501;51.214;6.768;2022-08-26T13:25:02;100948.50;;;24.01;100.00
4972;BME280;2501;51.214;6.768;2022-08-26T13:27:31;100947.88;;;23.97;100.00
4972;BME280;2501;51.214;6.768;2022-08-26T13:29:59;100953.06;;;23.90;100.00
4972;BME280;2501;51.214;6.768;2022-08-26T13:32:31;100947.53;;;23.95;100.00
4972;BME280;2501;51.214;6.768;2022-08-26T13:34:59;100949.91;;;23.97;100.00
4972;BME280;2501;51.214;6.768;2022-08-26T13:37:28;100958.72;;;23.90;100.00